Latest Weather Observations for Hobart Airport

IDT60801

Issued at 4:02 pm EST Monday 2 May 2016 (issued every 30 minutes, with the page automatically refreshed every 10 minutes)

About weather observations | Map of weather stations | Latest weather observations for TAS | Other Formats
Station Details ID: 094008 Name: HOBART AIRPORT Lat: -42.83 Lon: 147.50 Height: 4.0 m
Data from the previous 72 hours. | See also: Recent months at Hobart Airport
Date/Time
EST
Temp
°C
App
Temp
°C
Dew
Point
Rel
Hum
%
Delta-T
°C
Wind Press
QNH
hPa
Press
MSL
hPa
Rain
since 9 am
mm
Dir
 
Spd
km/h
Gust
km/h
Spd
kts
Gust
kts
02/03:30pm 17.9 11.5 3.4 38 6.8 NNW 26 39 14 21 997.0 997.1 0.0
02/03:00pm 17.2 12.2 4.4 42 6.1 NNW 20 30 11 16 997.4 997.4 0.0
02/02:30pm 17.4 9.6 2.9 38 6.7 NNW 33 44 18 24 997.8 997.8 0.0
02/02:07pm 17.7 9.7 3.7 39 6.5 NNW 35 54 19 29 997.6 997.6 0.0
02/02:00pm 17.6 9.8 4.7 42 6.2 NW 35 52 19 28 997.6 997.6 0.0
02/01:53pm 17.4 9.8 3.8 40 6.4 NW 33 52 18 28 997.9 997.9 0.0
02/01:30pm 17.0 9.6 3.8 41 6.2 NW 32 44 17 24 998.5 998.5 0.0
02/01:02pm 16.8 9.6 3.2 40 6.2 NNW 30 48 16 26 999.1 999.1 0.0
02/01:00pm 16.7 9.8 2.4 38 6.5 NNW 28 43 15 23 999.2 999.2 0.0
02/12:49pm 16.3 7.8 3.3 42 6.0 NW 37 56 20 30 999.4 999.4 0.0
02/12:30pm 16.1 8.4 3.3 42 5.9 NW 33 46 18 25 999.7 999.7 0.0
02/12:02pm 15.6 8.2 4.0 46 5.4 NNW 32 50 17 27 1000.2 1000.2 0.0
02/12:00pm 15.6 8.1 4.3 47 5.3 NNW 33 50 18 27 1000.3 1000.3 0.0
02/11:44am 15.9 8.5 3.9 44 5.6 NW 32 50 17 27 1000.5 1000.5 0.0
02/11:30am 15.5 8.9 4.4 47 5.2 NW 28 37 15 20 1000.9 1000.9 0.0
02/11:00am 15.8 9.3 4.8 48 5.2 NNW 28 44 15 24 1001.2 1001.2 0.0
02/10:30am 14.3 8.5 4.4 51 4.6 NNW 24 33 13 18 1001.5 1001.5 0.0
02/10:00am 13.7 8.3 4.4 53 4.3 NNW 22 33 12 18 1002.0 1002.0 0.0
02/09:30am 13.1 8.6 4.4 55 4.0 NNW 17 28 9 15 1002.3 1002.3 0.0
02/09:00am 12.3 8.5 3.9 56 3.8 NNW 13 24 7 13 1002.7 1002.7 5.4
02/08:30am 11.4 8.1 4.6 63 3.1 N 11 19 6 10 1003.0 1003.0 5.4
02/08:00am 11.2 7.4 4.1 61 3.2 NNW 13 19 7 10 1002.9 1002.9 5.4
02/07:30am 10.3 6.8 3.7 63 2.9 NNW 11 15 6 8 1002.9 1002.9 5.4
02/07:00am 10.6 6.4 3.6 62 3.1 NNW 15 24 8 13 1003.0 1003.0 5.4
02/06:30am 10.5 5.5 3.5 62 3.1 NNW 19 26 10 14 1003.0 1003.0 5.4
02/06:00am 10.2 5.2 3.6 63 2.9 NNW 19 30 10 16 1003.1 1003.1 5.4
02/05:30am 10.0 5.4 3.9 66 2.7 NNW 17 28 9 15 1003.2 1003.2 5.4
02/05:00am 10.3 4.3 3.2 61 3.1 NNW 24 30 13 16 1002.8 1002.8 5.4
02/04:30am 9.6 3.7 3.7 66 2.6 NW 24 32 13 17 1002.6 1002.6 5.4
02/04:00am 10.1 4.8 3.0 61 3.1 NNW 20 32 11 17 1002.4 1002.4 5.4
02/03:30am 10.2 4.9 1.7 55 3.6 NNW 19 30 10 16 1002.7 1002.7 5.4
02/03:00am 10.5 5.2 1.8 55 3.7 NW 19 32 10 17 1002.5 1002.5 5.4
02/02:30am 10.1 2.4 2.1 57 3.4 WNW 32 43 17 23 1002.3 1002.3 5.4
02/02:00am 10.6 3.4 0.7 50 4.1 WNW 28 43 15 23 1002.1 1002.1 5.4
02/01:30am 10.4 2.3 1.0 52 3.9 WNW 33 44 18 24 1001.9 1001.9 5.4
02/01:00am 10.3 3.3 1.8 55 3.6 NW 28 35 15 19 1001.9 1001.9 5.4
02/12:30am 10.1 2.3 1.8 56 3.5 NW 32 41 17 22 1001.5 1001.5 5.4
02/12:00am 9.6 1.5 3.2 64 2.8 WNW 35 46 19 25 1001.2 1001.2 5.4
 
Date/Time
EST
Temp
°C
App
Temp
°C
Dew
Point
Rel
Hum
%
Delta-T
°C
Wind Press
QNH
hPa
Press
MSL
hPa
Rain
since 9 am
mm
Dir
 
Spd
km/h
Gust
km/h
Spd
kts
Gust
kts
01/11:30pm 10.5 2.5 1.5 53 3.8 WNW 33 46 18 25 1000.7 1000.7 5.4
01/11:00pm 10.8 2.0 1.3 52 4.0 WNW 37 54 20 29 1000.5 1000.5 5.4
01/10:55pm 10.9 3.1 1.4 52 4.0 WNW 32 54 17 29 1000.3 1000.3 5.4
01/10:30pm 11.5 4.7 0.7 47 4.5 NW 26 35 14 19 1000.4 1000.4 5.4
01/10:00pm 11.3 3.5 1.7 51 4.1 WNW 32 46 17 25 999.8 999.8 5.4
01/09:50pm 11.3 2.6 2.0 53 4.0 W 37 56 20 30 999.5 999.5 5.4
01/09:30pm 11.6 3.2 1.8 51 4.2 WNW 35 50 19 27 999.1 999.1 5.4
01/09:08pm 12.2 4.2 1.5 48 4.6 WNW 33 54 18 29 998.7 998.7 5.4
01/09:00pm 11.9 5.0 2.5 52 4.1 WNW 28 43 15 23 998.4 998.4 5.4
01/08:45pm 12.0 4.8 3.0 54 4.0 W 30 48 16 26 998.2 998.2 5.4
01/08:30pm 12.0 5.6 3.2 55 3.9 W 26 44 14 24 997.9 997.9 5.4
01/08:00pm 12.1 7.0 3.9 57 3.7 W 20 33 11 18 997.1 997.2 5.4
01/07:54pm 12.1 6.3 4.2 58 3.6 W 24 43 13 23 996.7 996.8 5.4
01/07:30pm 12.0 3.4 4.9 62 3.3 WSW 39 57 21 31 995.0 995.1 5.4
01/07:05pm 12.4 5.0 5.1 61 3.4 WSW 33 57 18 31 994.5 994.6 5.4
01/07:00pm 12.1 5.0 5.7 65 3.0 WSW 32 46 17 25 994.6 994.7 5.4
01/06:33pm 12.1 3.4 6.2 67 2.8 WSW 41 59 22 32 993.6 993.7 5.4
01/06:30pm 11.9 3.0 6.7 70 2.5 W 43 54 23 29 993.5 993.6 5.4
01/06:03pm 12.3 4.8 8.1 75 2.1 WSW 37 59 20 32 992.2 992.2 5.4
01/06:00pm 12.5 5.4 8.1 74 2.2 W 35 48 19 26 992.1 992.1 5.2
01/05:44pm 12.6 6.9 9.9 83 1.4 W 30 43 16 23 991.2 991.2 4.8
01/05:30pm 12.7 7.1 10.0 84 1.4 WNW 30 39 16 21 990.2 990.2 4.2
01/05:00pm 13.0 8.0 9.7 80 1.7 WNW 26 37 14 20 989.2 989.2 3.0
01/04:30pm 15.0 8.8 7.9 62 3.5 WNW 30 41 16 22 988.2 988.2 2.4
01/04:00pm 16.3 11.6 7.6 56 4.4 NW 22 41 12 22 987.7 987.7 2.4
01/03:30pm 16.3 13.7 9.5 64 3.5 NNW 13 17 7 9 987.7 987.7 2.4
01/03:00pm 15.9 13.0 8.3 60 3.9 N 13 15 7 8 987.4 987.4 2.4
01/02:30pm 15.5 13.3 7.8 60 3.9 NW 9 13 5 7 987.5 987.5 2.4
01/02:00pm 14.6 12.6 8.5 67 3.1 N 9 13 5 7 988.0 988.0 2.4
01/01:30pm 14.0 12.2 9.4 74 2.4 WNW 9 15 5 8 988.6 988.6 2.4
01/01:00pm 13.8 11.3 8.0 68 2.9 NNW 11 15 6 8 989.3 989.3 2.4
01/12:30pm 13.8 11.3 9.6 76 2.2 N 13 24 7 13 990.1 990.1 2.4
01/12:09pm 12.8 9.9 9.7 81 1.6 NNE 15 48 8 26 991.9 991.9 2.0
01/12:06pm 15.2 14.7 12.7 85 1.4 NE 7 13 4 7 991.6 991.6 2.0
01/12:00pm 15.1 14.0 11.8 81 1.8 NE 9 13 5 7 991.2 991.2 2.0
01/11:30am 13.7 14.0 12.2 91 0.8 NW 2 7 1 4 992.4 992.4 2.0
01/11:00am 13.2 12.5 11.9 92 0.7 WSW 7 11 4 6 992.9 993.0 2.0
01/10:30am 13.0 13.3 12.1 94 0.5 E 2 7 1 4 993.6 993.7 2.0
01/10:00am 13.0 11.8 11.5 91 0.8 N 9 15 5 8 995.1 995.2 1.8
01/09:30am 13.0 11.4 11.7 92 0.7 N 11 17 6 9 996.4 996.4 0.8
01/09:05am 13.3 10.3 11.8 91 0.8 NW 19 26 10 14 996.9 996.9 0.2
01/09:00am 13.3 10.0 11.6 89 0.9 NW 20 32 11 17 997.0 997.0 2.0
01/08:48am 14.0 11.3 11.8 86 1.2 WNW 17 30 9 16 997.0 997.0 1.2
01/08:30am 14.4 12.9 12.0 85 1.3 NW 11 20 6 11 996.6 996.6 0.4
01/08:06am 14.5 11.8 12.9 90 0.9 NNW 19 43 10 23 997.8 997.7 0.4
01/08:00am 14.1 13.3 12.8 92 0.7 NE 9 17 5 9 997.5 997.4 0.4
01/07:56am 14.3 14.0 12.7 90 0.9 NE 6 13 3 7 996.9 996.9 0.4
01/07:30am 13.5 12.9 12.4 93 0.6 SSW 7 20 4 11 997.1 997.1 0.4
01/07:00am 13.6 12.7 12.7 94 0.5 ESE 9 11 5 6 997.6 997.5 0.4
01/06:30am 13.4 12.0 12.3 93 0.6 SE 11 13 6 7 998.4 998.3 0.4
01/06:00am 14.1 13.2 12.5 90 0.9 ESE 9 17 5 9 999.6 999.5 0.4
01/05:30am 13.9 14.2 12.1 89 1.0 SSW 2 7 1 4 1000.8 1000.7 0.2
01/05:00am 13.9 13.2 12.1 89 1.0 SW 7 9 4 5 1000.8 1000.7 0.2
01/04:30am 13.0 12.5 11.9 93 0.6 NNW 6 7 3 4 1001.3 1001.2 0.2
01/04:00am 14.7 14.2 12.5 87 1.2 N 7 9 4 5 1001.8 1001.8 0.2
01/03:30am 14.6 12.9 12.6 88 1.1 N 13 17 7 9 1002.1 1002.1 0.2
01/03:00am 15.0 14.5 12.6 85 1.3 NNW 7 11 4 6 1002.5 1002.5 0.2
01/02:30am 14.6 13.3 12.4 87 1.2 N 11 15 6 8 1003.0 1003.0 0.2
01/02:00am 15.4 14.4 13.4 88 1.1 N 11 13 6 7 1003.7 1003.7 0.2
01/01:30am 16.0 14.2 13.3 84 1.5 N 15 26 8 14 1004.6 1004.6 0.2
01/01:00am 16.5 15.0 13.1 80 1.9 NNE 13 19 7 10 1005.1 1005.1 0.2
01/12:30am 13.3 13.8 11.6 89 0.9 CALM 0 0 0 0 1005.7 1005.7 0.0
01/12:00am 12.7 12.5 10.6 87 1.1 SSE 2 6 1 3 1005.9 1005.9 0.0
 
Date/Time
EST
Temp
°C
App
Temp
°C
Dew
Point
Rel
Hum
%
Delta-T
°C
Wind Press
QNH
hPa
Press
MSL
hPa
Rain
since 9 am
mm
Dir
 
Spd
km/h
Gust
km/h
Spd
kts
Gust
kts
30/11:30pm 12.1 12.3 10.4 89 0.9 CALM 0 6 0 3 1006.4 1006.4 0.0
30/11:00pm 13.9 13.0 11.3 84 1.4 SSE 7 9 4 5 1006.7 1006.7 0.0
30/10:30pm 14.4 13.8 11.6 83 1.5 S 6 9 3 5 1007.1 1007.1 0.0
30/10:00pm 14.0 12.9 10.8 81 1.7 SE 7 9 4 5 1007.4 1007.4 0.0
30/09:30pm 16.1 14.9 11.7 75 2.4 NNE 9 13 5 7 1007.6 1007.6 0.0
30/09:00pm 17.0 15.7 11.1 68 3.2 NNE 9 13 5 7 1007.4 1007.4 0.0
30/08:30pm 16.2 14.5 11.2 72 2.7 NNE 11 13 6 7 1007.3 1007.3 0.0
30/08:00pm 16.9 14.4 11.0 68 3.2 NNE 15 19 8 10 1007.4 1007.4 0.0
30/07:30pm 17.7 15.5 10.8 64 3.7 NNE 13 17 7 9 1007.6 1007.6 0.0
30/07:00pm 18.5 15.1 10.5 59 4.3 NNE 19 30 10 16 1007.3 1007.3 0.0
30/06:30pm 18.8 15.1 10.2 57 4.6 N 20 30 11 16 1007.1 1007.1 0.0
30/06:00pm 18.9 14.5 10.4 57 4.6 N 24 32 13 17 1007.0 1007.0 0.0
30/05:30pm 20.0 16.2 9.0 49 5.8 N 19 30 10 16 1006.9 1006.9 0.0
30/05:00pm 19.5 16.3 8.4 48 5.8 N 15 20 8 11 1006.9 1006.9 0.0
30/04:30pm 21.0 16.7 6.9 40 7.2 NNW 19 28 10 15 1006.9 1006.9 0.0
30/04:00pm 21.2 17.8 7.5 41 7.1 NW 15 22 8 12 1007.1 1007.1 0.0
30/03:30pm 21.2 15.3 7.7 41 7.0 NW 28 39 15 21 1007.2 1007.2 0.0
30/03:00pm 21.8 18.1 10.3 48 6.3 NNW 20 33 11 18 1007.4 1007.4 0.0
30/02:30pm 21.0 17.4 10.4 50 5.8 N 20 33 11 18 1007.6 1007.6 0.0
30/02:00pm 21.8 17.1 9.3 45 6.7 N 24 33 13 18 1007.2 1007.2 0.0
30/01:30pm 22.2 17.7 9.9 45 6.7 N 24 33 13 18 1007.6 1007.6 0.0
30/01:00pm 22.9 18.9 9.2 41 7.4 N 20 30 11 16 1007.8 1007.8 0.0
30/12:30pm 21.5 17.7 9.9 47 6.3 NNE 20 28 11 15 1008.4 1008.4 0.0
30/12:00pm 21.1 17.2 9.6 47 6.2 N 20 32 11 17 1009.1 1009.1 0.0
30/11:30am 20.7 16.4 9.5 48 6.0 N 22 32 12 17 1009.9 1009.9 0.0
30/11:00am 19.9 16.1 9.8 52 5.4 NNW 20 33 11 18 1010.3 1010.3 0.0
30/10:30am 19.0 15.4 9.8 55 4.9 NNW 19 30 10 16 1010.7 1010.7 0.0
30/10:00am 17.8 14.3 10.1 60 4.1 NNW 19 28 10 15 1011.2 1011.2 0.0
30/09:30am 16.5 12.8 10.3 67 3.3 NNW 20 30 11 16 1011.5 1011.5 0.0
30/09:00am 15.2 12.2 10.7 74 2.4 NNW 17 30 9 16 1012.1 1012.1 1.6
30/08:30am 14.5 12.1 9.9 74 2.4 NNW 13 20 7 11 1012.1 1012.1 1.6
30/08:00am 13.2 11.2 10.1 81 1.6 NW 11 20 6 11 1012.1 1012.1 1.6
30/07:30am 12.1 9.6 9.7 85 1.2 NW 13 19 7 10 1011.9 1011.9 1.6
30/07:00am 12.3 10.6 9.8 85 1.3 NNW 9 11 5 6 1011.7 1011.7 1.6
30/06:30am 11.4 10.0 9.6 89 0.9 NNW 7 11 4 6 1011.5 1011.5 1.6
30/06:00am 12.5 9.6 9.8 83 1.4 WNW 15 19 8 10 1011.6 1011.6 1.6
30/05:30am 12.0 9.1 9.8 86 1.1 NW 15 19 8 10 1011.5 1011.5 1.6
30/05:00am 11.4 9.0 10.2 92 0.6 WNW 13 17 7 9 1011.3 1011.3 1.6
30/04:30am 12.7 10.9 10.8 88 1.0 WNW 11 13 6 7 1011.0 1011.0 1.6
30/04:00am 12.9 10.8 11.0 88 1.0 NW 13 17 7 9 1010.8 1010.8 1.6
30/03:30am 13.4 11.3 11.3 87 1.1 NW 13 17 7 9 1010.6 1010.6 1.6
30/03:00am 13.8 11.8 11.4 85 1.3 NW 13 15 7 8 1010.6 1010.6 1.6
30/02:30am 13.5 11.5 11.4 87 1.1 NW 13 15 7 8 1010.5 1010.5 1.6
30/02:00am 12.8 11.9 11.3 91 0.8 NNW 7 9 4 5 1010.6 1010.6 1.6
30/01:30am 12.7 11.1 11.4 92 0.7 NNW 11 13 6 7 1010.5 1010.5 1.6
30/01:00am 14.1 13.0 12.1 88 1.1 WNW 9 11 5 6 1010.4 1010.4 1.6
30/12:30am 14.4 13.8 12.2 87 1.2 N 7 11 4 6 1010.3 1010.3 1.6
30/12:00am 15.8 13.5 11.7 76 2.2 N 15 19 8 10 1010.2 1010.2 1.6
 
Date/Time
EST
Temp
°C
App
Temp
°C
Dew
Point
Rel
Hum
%
Delta-T
°C
Wind Press
QNH
hPa
Press
MSL
hPa
Rain
since 9 am
mm
Dir
 
Spd
km/h
Gust
km/h
Spd
kts
Gust
kts
29/11:30pm 16.1 14.7 12.3 78 2.1 NNW 11 15 6 8 1010.2 1010.2 1.6
29/11:00pm 16.0 14.3 12.4 79 2.0 NNW 13 20 7 11 1010.5 1010.5 1.6
29/10:30pm 15.7 14.0 12.4 81 1.8 NNW 13 17 7 9 1010.2 1010.2 1.6
29/10:00pm 16.1 13.1 12.1 77 2.2 NNW 19 30 10 16 1010.1 1010.1 1.6
29/09:30pm 15.7 13.9 12.0 78 2.0 NNW 13 20 7 11 1010.1 1010.1 1.6
29/09:00pm 15.9 14.0 11.7 76 2.3 N 13 20 7 11 1009.8 1009.8 1.6
29/08:30pm 15.1 13.4 12.4 84 1.5 N 13 15 7 8 1009.2 1009.2 1.6
29/08:00pm 15.9 13.8 12.5 80 1.9 NNW 15 19 8 10 1008.8 1008.8 1.6
29/07:30pm 15.8 13.3 12.3 80 1.9 NNW 17 26 9 14 1008.5 1008.5 1.6
29/07:00pm 15.9 12.8 12.3 79 2.0 NNW 20 32 11 17 1008.6 1008.6 1.6
29/06:30pm 16.0 13.0 12.6 80 1.9 N 20 32 11 17 1008.6 1008.6 1.6
29/06:00pm 16.2 13.3 14.1 87 1.2 N 22 32 12 17 1008.9 1008.9 1.6
29/05:30pm 16.4 13.6 14.3 87 1.2 N 22 30 12 16 1008.8 1008.8 1.0
29/05:00pm 16.7 14.3 14.3 86 1.4 NNW 20 32 11 17 1008.6 1008.6 0.6
29/04:30pm 17.7 13.1 13.5 76 2.4 N 30 39 16 21 1008.5 1008.5 0.0

Other Formats:

Comma delimited format used in spreadsheet applications
http://www.bom.gov.au/fwo/IDT60801/IDT60801.94975.axf

JavaScript Object Notation format (JSON) in row-major order
http://www.bom.gov.au/fwo/IDT60801/IDT60801.94975.json